Time;durP1;ratioP1;P1;durP2;ratioP2;P2;SDS_P1;SDS_P2;PMS_P1;PMS_P2;Temp;Humidity;BMP_temperature;BMP_pressure;BME280_temperature;BME280_humidity;BME280_pressure;Samples;Min_cycle;Max_cycle;Signal;HPM_P1;HPM_P2
2023/04/07 00:01:55;;;;;;;;;;;;;;;27.12;38.45;94223.44;4987903;28;7004;-56
2023/04/07 00:04:25;;;;;;;;;;;;;;;27.09;38.38;94210.69;4994813;28;7222;-56
2023/04/07 00:06:52;;;;;;;;;;;;;;;27.11;38.35;94215.69;5000277;28;8883;-56
2023/04/07 00:09:57;;;;;;;;;;;;;;;27.12;38.39;94214.41;4988727;28;7237;-56
2023/04/07 00:12:25;;;;;;;;;;;;;;;27.12;38.05;94215.16;4981456;28;9050;-56
2023/04/07 00:14:55;;;;;;;;;;;;;;;27.08;38.61;94208.47;4975244;28;8441;-56
2023/04/07 00:17:20;;;;;;;;;;;;;;;27.09;38.28;94213.44;4989227;28;7106;-56
2023/04/07 00:19:48;;;;;;;;;;;;;;;27.10;38.42;94209.41;4978762;28;7866;-56
2023/04/07 00:22:14;;;;;;;;;;;;;;;27.10;38.59;94214.94;4982925;28;7043;-56
2023/04/07 00:24:57;;;;;;;;;;;;;;;27.09;38.61;94207.19;4996933;28;7305;-56
2023/04/07 00:27:48;;;;;;;;;;;;;;;27.11;38.62;94210.91;5001618;28;7308;-56
2023/04/07 00:30:33;;;;;;;;;;;;;;;27.11;38.61;94199.88;4991487;28;7065;-56
2023/04/07 00:33:20;;;;;;;;;;;;;;;27.10;38.45;94190.09;4992436;28;7133;-56
2023/04/07 00:35:46;;;;;;;;;;;;;;;27.11;38.92;94194.34;4992748;28;7030;-56
2023/04/07 00:38:23;;;;;;;;;;;;;;;27.11;38.27;94182.56;4975933;28;8717;-56
2023/04/07 00:41:03;;;;;;;;;;;;;;;27.10;38.84;94172.78;4979042;28;7616;-56
2023/04/07 00:43:29;;;;;;;;;;;;;;;27.10;38.57;94170.03;4975355;28;7264;-56
2023/04/07 00:45:55;;;;;;;;;;;;;;;27.10;38.82;94165.22;5015691;28;7005;-56
2023/04/07 00:48:21;;;;;;;;;;;;;;;27.06;38.62;94162.03;4994150;28;7105;-56
2023/04/07 00:50:50;;;;;;;;;;;;;;;27.05;38.76;94157.06;5000888;28;7022;-56
2023/04/07 00:53:19;;;;;;;;;;;;;;;27.03;38.42;94160.34;4981662;28;9344;-56
2023/04/07 00:55:45;;;;;;;;;;;;;;;27.03;38.73;94159.59;5015800;28;7147;-56
2023/04/07 00:58:12;;;;;;;;;;;;;;;27.02;38.87;94150.56;4986468;28;7132;-56
2023/04/07 01:01:21;;;;;;;;;;;;;;;27.04;38.79;94148.03;4992665;28;7029;-56
2023/04/07 01:04:25;;;;;;;;;;;;;;;27.02;38.83;94142.28;4978561;28;9149;-56
2023/04/07 01:07:37;;;;;;;;;;;;;;;27.05;38.56;94143.25;4990518;28;9171;-56
2023/04/07 01:10:11;;;;;;;;;;;;;;;27.03;38.19;94129.97;4991058;28;9525;-56
2023/04/07 01:13:27;;;;;;;;;;;;;;;27.03;38.66;94134.75;5010324;28;7107;-56
2023/04/07 01:16:06;;;;;;;;;;;;;;;27.01;38.67;94124.25;4985916;28;7216;-56
2023/04/07 01:18:37;;;;;;;;;;;;;;;27.02;38.28;94122.97;4987549;28;7304;-56
2023/04/07 01:21:51;;;;;;;;;;;;;;;27.01;38.48;94123.50;4977363;28;8985;-56
2023/04/07 01:25:08;;;;;;;;;;;;;;;26.98;38.58;94117.00;4926771;29;8885;-57
2023/04/07 01:28:10;;;;;;;;;;;;;;;27.01;38.66;94112.47;4914950;29;7170;-56
2023/04/07 01:30:40;;;;;;;;;;;;;;;26.99;38.64;94107.44;4898970;29;7067;-56
2023/04/07 01:33:20;;;;;;;;;;;;;;;27.01;38.59;94112.47;4908910;29;7681;-56
2023/04/07 01:36:00;;;;;;;;;;;;;;;27.01;39.04;94104.94;4901803;29;7303;-56
2023/04/07 01:38:51;;;;;;;;;;;;;;;27.00;38.52;94103.44;4904717;29;7497;-56
2023/04/07 01:41:28;;;;;;;;;;;;;;;26.99;38.98;94103.97;4901408;29;7294;-56
2023/04/07 01:44:16;;;;;;;;;;;;;;;26.97;38.67;94101.72;4908659;29;8740;-56
2023/04/07 01:46:55;;;;;;;;;;;;;;;26.99;38.66;94101.91;4914334;29;8669;-56
2023/04/07 01:49:25;;;;;;;;;;;;;;;26.96;38.81;94100.22;4913489;29;6982;-56
2023/04/07 01:52:07;;;;;;;;;;;;;;;27.00;38.53;94111.72;4914211;29;9047;-56
2023/04/07 01:54:45;;;;;;;;;;;;;;;27.00;38.56;94092.38;4912029;29;9417;-56
2023/04/07 01:57:36;;;;;;;;;;;;;;;26.99;38.40;94099.16;4910390;29;8962;-56
2023/04/07 02:00:21;;;;;;;;;;;;;;;27.00;38.57;94094.41;4905317;28;9001;-56
2023/04/07 02:03:21;;;;;;;;;;;;;;;27.02;38.60;94094.59;4952723;28;7243;-57
2023/04/07 02:05:58;;;;;;;;;;;;;;;27.01;38.51;94085.59;4990487;28;7066;-56
2023/04/07 02:08:29;;;;;;;;;;;;;;;27.04;38.82;94084.53;4992481;28;9084;-57
2023/04/07 02:11:02;;;;;;;;;;;;;;;27.04;38.33;94079.00;4995841;28;7278;-56
2023/04/07 02:13:46;;;;;;;;;;;;;;;27.03;38.58;94091.34;4977322;28;7260;-56
2023/04/07 02:16:31;;;;;;;;;;;;;;;27.04;38.62;94083.78;4993148;28;8770;-56
2023/04/07 02:18:58;;;;;;;;;;;;;;;27.04;38.15;94084.53;5016801;28;8668;-56
2023/04/07 02:21:41;;;;;;;;;;;;;;;27.02;38.24;94080.81;4994457;28;7091;-56
2023/04/07 02:24:40;;;;;;;;;;;;;;;27.03;38.59;94072.03;5004725;28;7364;-56
2023/04/07 02:27:16;;;;;;;;;;;;;;;27.04;38.54;94070.72;4973640;28;7226;-56
2023/04/07 02:29:53;;;;;;;;;;;;;;;27.03;38.55;94069.25;4964335;28;7543;-56
2023/04/07 02:32:23;;;;;;;;;;;;;;;27.03;38.49;94052.69;4972426;28;7534;-56
2023/04/07 02:35:10;;;;;;;;;;;;;;;27.06;38.56;94065.41;4982485;28;7519;-56
2023/04/07 02:37:49;;;;;;;;;;;;;;;27.02;38.34;94056.72;4967674;28;7019;-56
2023/04/07 02:41:05;;;;;;;;;;;;;;;27.03;38.38;94049.19;4984919;28;7033;-56
2023/04/07 02:43:34;;;;;;;;;;;;;;;27.03;38.73;94043.66;4927215;29;7070;-56
2023/04/07 02:46:20;;;;;;;;;;;;;;;27.04;38.24;94043.13;4917126;29;8995;-56
2023/04/07 02:49:04;;;;;;;;;;;;;;;27.04;38.50;94034.09;4921456;29;7308;-56
2023/04/07 02:51:32;;;;;;;;;;;;;;;27.04;38.37;94032.09;4916622;29;8849;-56
2023/04/07 02:54:10;;;;;;;;;;;;;;;27.03;38.95;94027.84;4934968;29;9086;-56
2023/04/07 02:57:03;;;;;;;;;;;;;;;27.04;38.72;94025.81;4920749;29;7487;-56
2023/04/07 02:59:33;;;;;;;;;;;;;;;27.03;38.22;94016.81;4936644;29;9040;-56
2023/04/07 03:02:14;;;;;;;;;;;;;;;27.00;38.22;94020.63;4920480;29;7126;-56
2023/04/07 03:05:08;;;;;;;;;;;;;;;27.03;38.46;94016.06;4902520;29;7601;-56
2023/04/07 03:07:50;;;;;;;;;;;;;;;27.01;38.05;94008.31;4918400;29;7268;-56
2023/04/07 03:10:45;;;;;;;;;;;;;;;27.02;38.33;94003.53;4915369;29;7346;-56
2023/04/07 03:13:15;;;;;;;;;;;;;;;27.00;38.55;94004.06;4944896;28;7259;-56
2023/04/07 03:15:42;;;;;;;;;;;;;;;27.00;38.44;93992.25;4919015;29;10348;-56
2023/04/07 03:18:21;;;;;;;;;;;;;;;27.01;38.43;93991.75;4926238;29;8705;-56
2023/04/07 03:21:04;;;;;;;;;;;;;;;27.01;38.36;93997.28;4966632;28;9232;-56
2023/04/07 03:23:42;;;;;;;;;;;;;;;27.02;38.69;93998.75;4995668;28;9260;-56
2023/04/07 03:26:17;;;;;;;;;;;;;;;27.02;38.28;93990.47;4990494;28;7035;-56
2023/04/07 03:29:05;;;;;;;;;;;;;;;27.01;38.50;93991.75;5004269;28;7068;-56
2023/04/07 03:31:40;;;;;;;;;;;;;;;27.00;39.20;93987.50;4988604;28;8201;-56
2023/04/07 03:34:15;;;;;;;;;;;;;;;27.00;38.76;93990.25;4989271;28;8703;-56
2023/04/07 03:36:41;;;;;;;;;;;;;;;27.00;38.36;93983.97;5002770;28;9541;-56
2023/04/07 03:39:16;;;;;;;;;;;;;;;26.98;38.54;93975.50;4983954;28;7257;-56
2023/04/07 03:41:50;;;;;;;;;;;;;;;26.98;38.12;93976.25;4999313;28;8048;-56
2023/04/07 03:44:25;;;;;;;;;;;;;;;26.99;38.49;93974.22;5002557;28;7039;-56
2023/04/07 03:47:02;;;;;;;;;;;;;;;26.99;38.48;93972.19;4979307;28;7285;-56
2023/04/07 03:49:37;;;;;;;;;;;;;;;26.98;38.51;93970.72;4980846;28;9745;-56
2023/04/07 03:52:15;;;;;;;;;;;;;;;26.99;38.48;93971.47;4997808;28;7269;-56
2023/04/07 03:55:01;;;;;;;;;;;;;;;26.97;38.28;93974.75;4987674;28;9015;-56
2023/04/07 03:57:31;;;;;;;;;;;;;;;26.97;37.95;93963.69;4990610;28;9047;-56
2023/04/07 03:59:59;;;;;;;;;;;;;;;26.97;38.63;93969.22;4984903;28;9408;-56
2023/04/07 04:02:29;;;;;;;;;;;;;;;26.98;38.47;93969.97;5008029;28;7273;-56
2023/04/07 04:05:04;;;;;;;;;;;;;;;26.98;38.49;93962.44;5016855;28;9142;-56
2023/04/07 04:07:32;;;;;;;;;;;;;;;26.98;38.70;93964.44;4993039;28;9508;-56
2023/04/07 04:10:03;;;;;;;;;;;;;;;26.97;38.88;93963.69;4975145;28;8512;-56
2023/04/07 04:12:29;;;;;;;;;;;;;;;26.97;38.84;93969.22;4991865;28;7207;-56
2023/04/07 04:14:57;;;;;;;;;;;;;;;26.93;38.59;93968.81;5000598;28;9162;-56
2023/04/07 04:17:26;;;;;;;;;;;;;;;26.96;38.46;93967.75;5001907;28;7500;-56
2023/04/07 04:19:53;;;;;;;;;;;;;;;26.94;38.99;93964.03;4984656;28;9538;-56
2023/04/07 04:22:21;;;;;;;;;;;;;;;26.94;38.70;93964.78;4999708;28;7122;-56
2023/04/07 04:24:51;;;;;;;;;;;;;;;26.94;38.24;93948.22;4977812;28;7577;-56
2023/04/07 04:27:17;;;;;;;;;;;;;;;26.94;38.86;93948.22;4994631;28;9026;-57
2023/04/07 04:29:55;;;;;;;;;;;;;;;26.92;37.83;93948.00;5001300;28;7159;-56
2023/04/07 04:32:35;;;;;;;;;;;;;;;26.93;38.09;93952.25;4994339;28;7512;-56
2023/04/07 04:35:21;;;;;;;;;;;;;;;26.93;38.22;93949.47;4992414;28;7098;-56
2023/04/07 04:37:46;;;;;;;;;;;;;;;26.92;38.88;93947.25;4992130;28;9143;-56
2023/04/07 04:40:13;;;;;;;;;;;;;;;26.92;38.75;93951.50;4989661;28;7196;-56
2023/04/07 04:42:40;;;;;;;;;;;;;;;26.90;38.95;93953.31;4990122;28;7371;-56
2023/04/07 04:45:09;;;;;;;;;;;;;;;26.94;38.51;93958.50;5004831;28;6994;-56
2023/04/07 04:47:37;;;;;;;;;;;;;;;26.92;38.46;93953.53;4976655;28;9352;-56
2023/04/07 04:50:59;;;;;;;;;;;;;;;26.94;38.62;93950.97;4986028;28;7126;-56
2023/04/07 04:53:32;;;;;;;;;;;;;;;26.91;38.63;93954.78;5005742;28;8889;-56
2023/04/07 04:56:16;;;;;;;;;;;;;;;26.91;39.09;93943.75;4981249;28;7305;-56
2023/04/07 04:58:45;;;;;;;;;;;;;;;26.90;38.62;93945.75;5005319;28;9541;-56
2023/04/07 05:01:12;;;;;;;;;;;;;;;26.89;38.49;93938.78;4976079;28;7277;-56
2023/04/07 05:03:39;;;;;;;;;;;;;;;26.89;38.60;93935.25;5007751;28;7454;-56
2023/04/07 05:06:07;;;;;;;;;;;;;;;26.85;38.75;93932.06;4989174;28;7033;-56
2023/04/07 05:08:33;;;;;;;;;;;;;;;26.86;38.95;93939.09;4995333;28;7168;-56
2023/04/07 05:11:00;;;;;;;;;;;;;;;26.87;38.41;93938.56;4987129;28;8991;-56
2023/04/07 05:13:29;;;;;;;;;;;;;;;26.85;38.79;93934.84;4995107;28;7181;-56
2023/04/07 05:16:26;;;;;;;;;;;;;;;26.87;38.76;93940.56;4995467;28;9359;-56
2023/04/07 05:18:54;;;;;;;;;;;;;;;26.86;38.84;93942.56;4923093;29;7268;-56
2023/04/07 05:21:39;;;;;;;;;;;;;;;26.85;38.53;93943.13;4933388;29;7001;-56
2023/04/07 05:24:36;;;;;;;;;;;;;;;26.82;38.83;93947.69;4933518;29;9440;-56
2023/04/07 05:27:31;;;;;;;;;;;;;;;26.83;38.67;93940.16;4909456;29;8534;-56
2023/04/07 05:30:15;;;;;;;;;;;;;;;26.82;38.81;93931.13;4898819;29;7042;-56
2023/04/07 05:32:40;;;;;;;;;;;;;;;26.82;38.68;93935.88;4895848;29;9612;-56
2023/04/07 05:36:00;;;;;;;;;;;;;;;26.87;38.87;93935.06;4896378;29;8209;-57
2023/04/07 05:38:30;;;;;;;;;;;;;;;26.90;38.59;93934.72;4895901;29;7117;-56
2023/04/07 05:40:56;;;;;;;;;;;;;;;26.89;38.40;93927.72;4894603;29;7312;-56
2023/04/07 05:43:38;;;;;;;;;;;;;;;26.91;38.47;93924.44;4878708;29;9027;-56
2023/04/07 05:46:14;;;;;;;;;;;;;;;26.93;38.47;93924.66;4895604;29;8756;-56
2023/04/07 05:49:09;;;;;;;;;;;;;;;26.94;38.61;93923.38;4880645;29;7416;-56
2023/04/07 05:51:41;;;;;;;;;;;;;;;26.95;38.74;93921.38;4894742;29;9155;-56
2023/04/07 05:54:17;;;;;;;;;;;;;;;26.92;39.30;93903.84;4882353;29;7063;-56
2023/04/07 05:56:43;;;;;;;;;;;;;;;26.94;38.71;93906.06;4923048;29;9322;-56
2023/04/07 05:59:25;;;;;;;;;;;;;;;26.92;38.91;93903.09;4933093;29;9167;-56
2023/04/07 06:01:51;;;;;;;;;;;;;;;26.94;38.49;93906.81;4919973;29;7536;-56
2023/04/07 06:04:27;;;;;;;;;;;;;;;26.92;39.16;93906.63;4977632;28;9310;-56
2023/04/07 06:07:03;;;;;;;;;;;;;;;26.93;38.92;93908.09;4979894;28;9338;-56
2023/04/07 06:09:45;;;;;;;;;;;;;;;26.94;38.61;93909.59;4975772;28;8360;-56
2023/04/07 06:12:22;;;;;;;;;;;;;;;26.90;38.92;93904.38;4981855;28;7198;-56
2023/04/07 06:15:27;;;;;;;;;;;;;;;26.91;39.08;93910.63;4990126;28;7066;-56
2023/04/07 06:17:53;;;;;;;;;;;;;;;26.89;38.69;93911.19;4984474;28;7137;-56
2023/04/07 06:20:37;;;;;;;;;;;;;;;26.91;39.40;93910.63;4983968;28;7270;-56
2023/04/07 06:23:13;;;;;;;;;;;;;;;26.92;38.94;93904.56;4975627;28;9398;-56
2023/04/07 06:26:00;;;;;;;;;;;;;;;26.89;39.48;93910.44;5004373;28;8505;-55
2023/04/07 06:28:26;;;;;;;;;;;;;;;26.86;39.13;93903.22;5003384;28;7146;-56
2023/04/07 06:30:53;;;;;;;;;;;;;;;26.84;39.14;93903.00;4991025;28;9728;-56
2023/04/07 06:33:24;;;;;;;;;;;;;;;26.79;39.56;93901.09;5002845;28;7297;-56
2023/04/07 06:35:50;;;;;;;;;;;;;;;26.80;39.42;93908.09;4986699;28;7044;-56
2023/04/07 06:38:16;;;;;;;;;;;;;;;26.80;39.94;93906.06;5005430;28;7236;-56
2023/04/07 06:40:42;;;;;;;;;;;;;;;26.82;39.67;93898.00;4988905;28;7187;-56
2023/04/07 06:43:11;;;;;;;;;;;;;;;26.77;39.87;93895.38;4993651;28;6996;-56
2023/04/07 06:45:37;;;;;;;;;;;;;;;26.83;39.70;93912.56;4989857;28;9127;-55
2023/04/07 06:48:03;;;;;;;;;;;;;;;26.84;39.76;93903.75;4992830;28;8924;-56
2023/04/07 06:50:29;;;;;;;;;;;;;;;26.82;40.03;93902.78;4997212;28;9293;-56
2023/04/07 06:52:58;;;;;;;;;;;;;;;26.88;40.00;93892.41;4993426;28;7314;-56
2023/04/07 06:55:24;;;;;;;;;;;;;;;26.87;39.73;93893.66;5000662;28;9167;-56
2023/04/07 06:57:51;;;;;;;;;;;;;;;26.81;39.40;93893.03;5006456;28;7269;-56
2023/04/07 07:00:29;;;;;;;;;;;;;;;26.77;39.65;93898.84;4999636;28;7487;-56
2023/04/07 07:03:32;;;;;;;;;;;;;;;26.78;40.50;93902.34;4993170;28;9287;-56
2023/04/07 07:06:26;;;;;;;;;;;;;;;26.73;40.29;93894.94;4994352;28;7253;-56
2023/04/07 07:08:55;;;;;;;;;;;;;;;26.73;40.17;93894.94;4968668;28;8983;-56
2023/04/07 07:11:42;;;;;;;;;;;;;;;26.74;40.05;93896.41;4977040;28;7091;-56
2023/04/07 07:14:08;;;;;;;;;;;;;;;26.78;40.53;93902.34;4970965;28;7128;-56
2023/04/07 07:16:33;;;;;;;;;;;;;;;26.85;39.62;93905.22;4953000;28;9263;-56
2023/04/07 07:18:59;;;;;;;;;;;;;;;26.85;39.86;93901.72;4969759;28;7130;-56
2023/04/07 07:21:26;;;;;;;;;;;;;;;26.87;39.79;93905.44;4967685;28;7381;-56
2023/04/07 07:23:55;;;;;;;;;;;;;;;26.86;39.61;93903.94;4971959;28;7293;-57
2023/04/07 07:26:26;;;;;;;;;;;;;;;26.92;40.12;93912.13;4968961;28;7048;-56
2023/04/07 07:28:54;;;;;;;;;;;;;;;26.96;39.93;93898.75;4966446;28;7263;-56
2023/04/07 07:31:20;;;;;;;;;;;;;;;26.94;39.60;93898.53;4967752;28;8947;-56
2023/04/07 07:33:47;;;;;;;;;;;;;;;26.93;39.73;93902.56;4965518;28;7853;-56
2023/04/07 07:36:13;;;;;;;;;;;;;;;26.91;39.89;93905.13;4969164;28;7083;-56
2023/04/07 07:38:39;;;;;;;;;;;;;;;26.88;40.37;93908.94;4970203;28;9036;-56
2023/04/07 07:41:10;;;;;;;;;;;;;;;26.85;39.67;93907.25;4946138;28;7264;-56
2023/04/07 07:43:36;;;;;;;;;;;;;;;26.85;39.59;93901.72;4935616;28;7244;-56
2023/04/07 07:46:02;;;;;;;;;;;;;;;26.84;39.70;93908.50;4999820;28;9468;-56
2023/04/07 07:48:28;;;;;;;;;;;;;;;26.84;40.09;93905.75;5005319;28;7133;-56
2023/04/07 07:50:55;;;;;;;;;;;;;;;26.86;40.26;93914.25;4989090;28;7120;-56
2023/04/07 07:53:22;;;;;;;;;;;;;;;26.85;39.90;93923.81;5003439;28;7021;-56
2023/04/07 07:55:54;;;;;;;;;;;;;;;26.84;39.91;93920.28;4979509;28;8795;-56
2023/04/07 07:58:25;;;;;;;;;;;;;;;26.85;40.37;93929.31;4988863;28;7259;-56
2023/04/07 08:00:56;;;;;;;;;;;;;;;26.87;39.76;93932.28;4992768;28;7034;-56
2023/04/07 08:03:38;;;;;;;;;;;;;;;26.85;40.30;93934.84;5005972;28;7281;-56
2023/04/07 08:06:09;;;;;;;;;;;;;;;26.85;39.88;93935.59;4997684;28;8465;-56
2023/04/07 08:08:35;;;;;;;;;;;;;;;26.85;40.26;93941.09;4993082;28;7298;-56
2023/04/07 08:11:12;;;;;;;;;;;;;;;26.85;40.06;93945.88;4992807;28;7461;-56
2023/04/07 08:13:46;;;;;;;;;;;;;;;26.85;39.85;93954.16;5011838;28;7351;-56
2023/04/07 08:16:15;;;;;;;;;;;;;;;26.86;40.17;93961.16;5010366;28;6996;-56
2023/04/07 08:18:42;;;;;;;;;;;;;;;26.88;40.29;93969.66;4999904;28;8004;-56
2023/04/07 08:21:08;;;;;;;;;;;;;;;26.87;40.27;93973.69;4983359;28;7275;-56
2023/04/07 08:23:35;;;;;;;;;;;;;;;26.89;40.01;93973.91;4986597;28;7231;-56
2023/04/07 08:26:09;;;;;;;;;;;;;;;26.89;39.78;93985.69;4994570;28;9017;-56
2023/04/07 08:28:41;;;;;;;;;;;;;;;26.91;39.75;93998.94;4988939;28;7064;-56
2023/04/07 08:31:07;;;;;;;;;;;;;;;26.89;39.60;93990.47;4985660;28;9022;-56
2023/04/07 08:33:33;;;;;;;;;;;;;;;26.88;40.46;93995.22;4989687;28;8692;-56
2023/04/07 08:36:00;;;;;;;;;;;;;;;26.88;40.30;94002.78;5013217;28;7007;-56
2023/04/07 08:38:26;;;;;;;;;;;;;;;26.86;40.04;94002.56;4987649;28;9186;-56
2023/04/07 08:41:00;;;;;;;;;;;;;;;26.88;39.64;94000.75;5002301;28;7129;-56
2023/04/07 08:43:28;;;;;;;;;;;;;;;26.87;39.81;93995.75;4987617;28;7188;-56
2023/04/07 08:46:01;;;;;;;;;;;;;;;26.88;39.83;93994.50;4992090;28;9077;-56
2023/04/07 08:48:33;;;;;;;;;;;;;;;26.84;39.77;93992.03;4987993;28;7032;-55
2023/04/07 08:51:05;;;;;;;;;;;;;;;26.89;39.97;94007.00;4991626;28;9032;-56
2023/04/07 08:53:49;;;;;;;;;;;;;;;26.89;39.47;94013.28;4988029;28;8937;-56
2023/04/07 08:56:23;;;;;;;;;;;;;;;26.90;39.70;94005.75;4995168;28;7282;-56
2023/04/07 08:58:51;;;;;;;;;;;;;;;26.92;39.64;94017.00;5009866;28;7356;-55
2023/04/07 09:01:21;;;;;;;;;;;;;;;26.90;39.91;94014.03;5009658;28;9645;-56
2023/04/07 09:03:50;;;;;;;;;;;;;;;26.89;39.85;94007.00;4982926;28;7045;-56
2023/04/07 09:06:27;;;;;;;;;;;;;;;26.89;40.57;94018.06;5009461;28;9300;-56
2023/04/07 09:09:08;;;;;;;;;;;;;;;26.79;41.32;94020.50;4987681;28;7140;-56
2023/04/07 09:11:39;;;;;;;;;;;;;;;26.73;41.98;94032.88;4995563;28;8995;-56
2023/04/07 09:14:10;;;;;;;;;;;;;;;26.68;42.05;94025.41;4981243;28;7320;-56
2023/04/07 09:16:38;;;;;;;;;;;;;;;26.67;41.61;94032.19;4992119;28;7902;-56
2023/04/07 09:19:19;;;;;;;;;;;;;;;26.66;41.83;94039.75;5004553;28;7038;-56
2023/04/07 09:21:54;;;;;;;;;;;;;;;26.66;41.30;94030.72;5008647;28;7391;-56
2023/04/07 09:24:28;;;;;;;;;;;;;;;26.66;41.85;94030.72;4978145;28;7265;-56
2023/04/07 09:27:16;;;;;;;;;;;;;;;26.70;41.57;94036.66;5013102;28;7246;-56
2023/04/07 09:29:47;;;;;;;;;;;;;;;26.69;42.53;94035.16;4978822;28;7304;-56
2023/04/07 09:32:40;;;;;;;;;;;;;;;26.71;42.14;94040.91;5002386;28;7148;-56
2023/04/07 09:35:06;;;;;;;;;;;;;;;26.71;42.43;94040.91;5016603;28;8998;-56
2023/04/07 09:37:37;;;;;;;;;;;;;;;26.66;43.04;94039.75;4987746;28;9152;-56
2023/04/07 09:40:07;;;;;;;;;;;;;;;26.64;42.91;94047.06;4984841;28;7014;-56
2023/04/07 09:42:35;;;;;;;;;;;;;;;26.65;42.77;94043.75;4985136;28;8662;-56
2023/04/07 09:45:02;;;;;;;;;;;;;;;26.71;42.68;94046.41;4997167;28;9339;-56
2023/04/07 09:47:30;;;;;;;;;;;;;;;26.73;42.02;94047.41;5004157;28;9067;-56
2023/04/07 09:49:58;;;;;;;;;;;;;;;26.76;41.97;94042.84;5003175;28;7239;-56
2023/04/07 09:52:52;;;;;;;;;;;;;;;26.78;41.61;94052.09;4986275;28;9223;-56
2023/04/07 09:55:22;;;;;;;;;;;;;;;26.80;41.70;94049.56;5000432;28;7266;-56
2023/04/07 09:57:57;;;;;;;;;;;;;;;26.80;41.75;94055.06;4988305;28;7022;-56
2023/04/07 10:00:31;;;;;;;;;;;;;;;26.80;41.86;94048.81;5009418;28;9154;-56
2023/04/07 10:02:57;;;;;;;;;;;;;;;26.79;41.82;94037.03;5006346;28;9049;-56
2023/04/07 10:05:24;;;;;;;;;;;;;;;26.82;41.59;94040.75;4995194;28;7110;-56
2023/04/07 10:08:00;;;;;;;;;;;;;;;26.83;41.21;94047.75;4979839;28;9346;-56
2023/04/07 10:10:29;;;;;;;;;;;;;;;26.79;41.54;94039.06;4999766;28;7046;-56
2023/04/07 10:13:02;;;;;;;;;;;;;;;26.83;43.01;94042.25;5021826;28;9379;-56
2023/04/07 10:15:29;;;;;;;;;;;;;;;26.87;42.25;94048.19;4992663;28;8708;-56
2023/04/07 10:17:58;;;;;;;;;;;;;;;26.89;42.03;94040.88;4990665;28;9361;-56
2023/04/07 10:20:32;;;;;;;;;;;;;;;26.90;41.40;94041.63;4991303;28;9415;-56
2023/04/07 10:23:21;;;;;;;;;;;;;;;26.88;41.25;94044.19;4995949;28;9048;-57
2023/04/07 10:25:57;;;;;;;;;;;;;;;26.88;40.97;94038.66;4988184;28;8260;-56
2023/04/07 10:28:40;;;;;;;;;;;;;;;26.89;40.73;94048.41;5008193;28;7048;-56
2023/04/07 10:31:07;;;;;;;;;;;;;;;26.87;40.27;94059.22;5006625;28;9980;-56
2023/04/07 10:33:49;;;;;;;;;;;;;;;26.83;40.49;94051.28;5007746;28;7118;-56
2023/04/07 10:36:22;;;;;;;;;;;;;;;26.85;40.37;94059.78;4988894;28;7301;-56
2023/04/07 10:39:13;;;;;;;;;;;;;;;26.86;40.49;94063.28;4992264;28;7208;-56
2023/04/07 10:41:52;;;;;;;;;;;;;;;26.84;40.04;94063.78;4995647;28;7252;-56
2023/04/07 10:44:51;;;;;;;;;;;;;;;26.84;40.26;94060.28;4991932;28;7165;-56
2023/04/07 10:47:21;;;;;;;;;;;;;;;26.88;40.79;94066.25;4996113;28;7293;-56
2023/04/07 10:53:31;;;;;;;;;;;;;;;26.83;40.81;94069.84;5007708;28;7010;-56
2023/04/07 10:56:10;;;;;;;;;;;;;;;26.85;40.83;94073.56;5008497;28;7440;-56
2023/04/07 10:58:43;;;;;;;;;;;;;;;26.83;40.93;94075.34;4999029;28;7325;-56
2023/04/07 11:01:34;;;;;;;;;;;;;;;26.76;41.38;94084.25;5011161;28;7514;-56
2023/04/07 11:04:09;;;;;;;;;;;;;;;26.76;40.88;94087.00;5002500;28;7291;-56
2023/04/07 11:06:46;;;;;;;;;;;;;;;26.77;41.09;94094.03;4984777;28;6860;-56
2023/04/07 11:09:26;;;;;;;;;;;;;;;26.79;41.03;94097.00;4989700;28;7328;-56
2023/04/07 11:12:03;;;;;;;;;;;;;;;26.83;40.54;94098.19;4986514;28;7122;-56
2023/04/07 11:14:43;;;;;;;;;;;;;;;26.86;40.39;94097.13;5023523;28;8978;-56
2023/04/07 11:17:13;;;;;;;;;;;;;;;26.87;40.15;94103.38;4996427;28;8675;-56
2023/04/07 11:20:05;;;;;;;;;;;;;;;26.88;39.80;94104.88;5006087;28;7221;-56
2023/04/07 11:22:58;;;;;;;;;;;;;;;26.88;39.89;94105.59;4986678;28;7286;-56
2023/04/07 11:25:34;;;;;;;;;;;;;;;26.87;39.59;94109.66;4995812;28;7187;-56
2023/04/07 11:28:20;;;;;;;;;;;;;;;26.88;39.56;94110.41;4995847;28;7455;-57
2023/04/07 11:30:52;;;;;;;;;;;;;;;26.87;40.19;94117.94;4985519;28;7171;-56
2023/04/07 11:33:24;;;;;;;;;;;;;;;26.86;39.74;94121.22;4994254;28;8997;-56
2023/04/07 11:35:57;;;;;;;;;;;;;;;26.87;39.84;94126.22;4998151;28;7258;-56
2023/04/07 11:38:26;;;;;;;;;;;;;;;26.91;40.02;94123.13;4985915;28;7176;-56
2023/04/07 11:41:10;;;;;;;;;;;;;;;26.92;40.16;94124.63;4992687;28;7066;-56
2023/04/07 11:43:40;;;;;;;;;;;;;;;26.92;40.06;94122.59;4991401;28;7353;-57
2023/04/07 11:46:12;;;;;;;;;;;;;;;26.93;40.13;94112.31;4985296;28;7288;-56
2023/04/07 11:48:40;;;;;;;;;;;;;;;26.99;39.58;94121.25;4997963;28;7658;-56
2023/04/07 11:51:18;;;;;;;;;;;;;;;27.00;39.60;94113.72;4987172;28;7773;-56
2023/04/07 11:53:55;;;;;;;;;;;;;;;27.04;39.97;94119.66;4988850;28;7715;-56
2023/04/07 11:56:23;;;;;;;;;;;;;;;27.06;39.87;94128.16;5001861;28;7026;-56
2023/04/07 11:59:22;;;;;;;;;;;;;;;27.07;39.80;94121.38;4986150;28;8867;-56
2023/04/07 12:01:49;;;;;;;;;;;;;;;27.08;39.62;94120.13;5000697;28;8759;-56
2023/04/07 12:04:18;;;;;;;;;;;;;;;27.09;39.87;94124.38;5003372;28;7899;-56
2023/04/07 12:06:47;;;;;;;;;;;;;;;27.09;39.63;94122.34;4988160;28;8585;-56
2023/04/07 12:09:36;;;;;;;;;;;;;;;27.12;39.71;94121.28;5001977;28;7324;-56
2023/04/07 12:12:38;;;;;;;;;;;;;;;27.13;40.21;94114.50;4994017;28;7275;-56
2023/04/07 12:15:08;;;;;;;;;;;;;;;27.14;39.72;94115.25;4936873;28;9315;-57
2023/04/07 12:17:39;;;;;;;;;;;;;;;27.15;39.42;94111.94;4948331;28;7041;-56
2023/04/07 12:20:09;;;;;;;;;;;;;;;27.16;39.75;94116.22;4950576;28;8992;-56
2023/04/07 12:22:37;;;;;;;;;;;;;;;27.16;39.65;94110.69;4943146;28;7208;-56
2023/04/07 12:25:12;;;;;;;;;;;;;;;27.18;39.67;94110.91;4941663;28;7613;-56
2023/04/07 12:27:46;;;;;;;;;;;;;;;27.15;39.82;94113.97;4934407;28;8125;-56
2023/04/07 12:30:21;;;;;;;;;;;;;;;27.15;39.63;94111.94;4952580;28;9700;-57
2023/04/07 12:32:47;;;;;;;;;;;;;;;27.14;40.12;94121.53;4935837;28;8902;-56
2023/04/07 12:35:42;;;;;;;;;;;;;;;27.15;39.86;94120.25;4935636;28;7315;-56
2023/04/07 12:38:37;;;;;;;;;;;;;;;27.14;40.04;94116.00;4908321;29;9038;-56
2023/04/07 12:41:13;;;;;;;;;;;;;;;27.11;40.14;94111.53;4913913;29;9880;-56
2023/04/07 12:43:49;;;;;;;;;;;;;;;27.10;40.52;94110.03;4913860;29;7551;-56
2023/04/07 12:46:34;;;;;;;;;;;;;;;27.14;40.07;94116.00;4915849;29;7009;-56
2023/04/07 12:49:01;;;;;;;;;;;;;;;27.15;40.07;94111.94;4932962;29;9033;-55
2023/04/07 12:51:29;;;;;;;;;;;;;;;27.14;40.00;94107.72;4919656;29;7288;-56
2023/04/07 12:54:05;;;;;;;;;;;;;;;27.18;40.27;94112.91;4927399;29;7239;-55
2023/04/07 12:56:31;;;;;;;;;;;;;;;27.18;39.56;94119.19;4912454;29;7051;-56
2023/04/07 12:59:41;;;;;;;;;;;;;;;27.16;40.02;94113.47;4909619;29;8786;-55
2023/04/07 13:02:12;;;;;;;;;;;;;;;27.18;40.26;94116.44;4928535;29;7373;-56
2023/04/07 13:05:27;;;;;;;;;;;;;;;27.18;39.95;94112.91;4910771;29;7267;-56
2023/04/07 13:08:06;;;;;;;;;;;;;;;27.13;40.39;94111.00;4864798;29;9108;-56
2023/04/07 13:10:35;;;;;;;;;;;;;;;27.17;40.22;94117.69;4887510;29;9152;-56
2023/04/07 13:13:11;;;;;;;;;;;;;;;27.18;40.09;94113.66;4866411;29;8986;-56
2023/04/07 13:15:53;;;;;;;;;;;;;;;27.20;40.04;94104.84;4913662;29;7210;-56
2023/04/07 13:18:40;;;;;;;;;;;;;;;27.21;40.25;94101.56;4913849;29;7206;-56
2023/04/07 13:21:06;;;;;;;;;;;;;;;27.22;40.03;94111.34;4923763;29;8629;-56
2023/04/07 13:24:10;;;;;;;;;;;;;;;27.20;39.53;94119.41;4911017;29;7470;-56
2023/04/07 13:27:05;;;;;;;;;;;;;;;27.21;40.19;94109.84;4909705;29;7850;-55
2023/04/07 13:29:32;;;;;;;;;;;;;;;27.20;40.03;94107.59;4894530;29;7121;-56
2023/04/07 13:32:20;;;;;;;;;;;;;;;27.18;40.20;94116.44;4887513;29;7291;-56
2023/04/07 13:34:46;;;;;;;;;;;;;;;27.17;40.13;94114.19;4887381;29;7302;-56
2023/04/07 13:37:15;;;;;;;;;;;;;;;27.13;39.98;94113.75;4877363;29;7507;-56
2023/04/07 13:40:00;;;;;;;;;;;;;;;27.08;39.64;94109.81;4890423;29;7139;-56
2023/04/07 13:42:28;;;;;;;;;;;;;;;27.10;40.25;94110.03;4890078;29;7499;-57
2023/04/07 13:44:56;;;;;;;;;;;;;;;27.10;40.24;94103.78;4915273;28;7476;-56
2023/04/07 13:47:24;;;;;;;;;;;;;;;27.06;39.97;94097.78;4935627;28;9050;-57
2023/04/07 13:49:53;;;;;;;;;;;;;;;27.05;40.52;94099.84;4923709;29;9120;-57